createdAt,value
2023-04-20T00:00:45.378Z,55.62
2023-04-20T00:01:45.388Z,55.69
2023-04-20T00:02:45.475Z,55.34
2023-04-20T00:03:45.544Z,55.38
2023-04-20T00:04:45.330Z,55.39
2023-04-20T00:05:45.327Z,61.82
2023-04-20T00:06:45.384Z,59.72
2023-04-20T00:07:45.370Z,58.49
2023-04-20T00:08:45.296Z,55.37
2023-04-20T00:09:45.319Z,60.05
2023-04-20T00:10:45.338Z,55.25
2023-04-20T00:11:45.313Z,55.15
2023-04-20T00:12:45.266Z,55.47
2023-04-20T00:13:45.252Z,66.22
2023-04-20T00:14:45.261Z,61.81
2023-04-20T00:15:46.251Z,56.05
2023-04-20T00:16:45.290Z,64.34
2023-04-20T00:17:45.266Z,60.31
2023-04-20T00:18:45.284Z,55.27
2023-04-20T00:19:45.218Z,55.54
2023-04-20T00:20:45.226Z,55.95
2023-04-20T00:21:45.250Z,55.64
2023-04-20T00:22:45.214Z,61.56
2023-04-20T00:23:45.185Z,66.11
2023-04-20T00:24:45.232Z,60.28
2023-04-20T00:25:45.226Z,66.74
2023-04-20T00:26:45.237Z,55.46
2023-04-20T00:27:45.170Z,59.73
2023-04-20T00:28:45.206Z,58.44
2023-04-20T00:29:45.168Z,55.49
2023-04-20T00:30:45.251Z,59.28
2023-04-20T00:31:45.136Z,57.21
2023-04-20T00:32:45.209Z,61.62
2023-04-20T00:33:45.220Z,59.27
2023-04-20T00:34:45.133Z,55.40
2023-04-20T00:35:45.117Z,56.05
2023-04-20T00:36:45.127Z,58.41
2023-04-20T00:37:45.087Z,55.82
2023-04-20T00:38:45.098Z,55.60
2023-04-20T00:39:45.108Z,56.11
2023-04-20T00:40:45.071Z,60.48
2023-04-20T00:41:45.070Z,63.60
2023-04-20T00:42:45.133Z,65.40
2023-04-20T00:43:45.040Z,59.24
2023-04-20T00:44:45.069Z,58.99
2023-04-20T00:45:45.084Z,57.86
2023-04-20T00:46:45.443Z,63.66
2023-04-20T00:47:45.068Z,59.80
2023-04-20T00:48:45.047Z,55.82
2023-04-20T00:49:45.010Z,62.26
2023-04-20T00:50:45.066Z,60.72
2023-04-20T00:51:45.037Z,61.68
2023-04-20T00:52:45.116Z,56.46
2023-04-20T00:53:44.980Z,63.59
2023-04-20T00:54:45.021Z,59.28
2023-04-20T00:55:44.998Z,63.39
2023-04-20T00:56:44.984Z,64.50
2023-04-20T00:57:45.018Z,58.96
2023-04-20T00:58:44.997Z,56.39
2023-04-20T00:59:44.989Z,65.45
2023-04-20T01:00:44.984Z,56.20
2023-04-20T01:01:44.989Z,60.69
2023-04-20T01:02:45.077Z,60.57
2023-04-20T01:03:45.232Z,56.59
2023-04-20T01:04:44.942Z,59.27
2023-04-20T01:05:44.974Z,56.64
2023-04-20T01:06:44.961Z,56.43
2023-04-20T01:07:44.926Z,61.17
2023-04-20T01:08:44.963Z,61.67
2023-04-20T01:09:44.959Z,59.90
2023-04-20T01:10:44.965Z,59.81
2023-04-20T01:11:44.991Z,61.84
2023-04-20T01:12:44.968Z,60.54
2023-04-20T01:13:44.998Z,56.30
2023-04-20T01:14:44.873Z,56.49
2023-04-20T01:15:44.989Z,58.81
2023-04-20T01:16:45.038Z,67.19
2023-04-20T01:17:44.874Z,57.57
2023-04-20T01:18:44.923Z,59.75
2023-04-20T01:19:44.847Z,62.14
2023-04-20T01:20:44.822Z,62.84
2023-04-20T01:21:44.838Z,65.34
2023-04-20T01:22:44.932Z,55.97
2023-04-20T01:23:44.812Z,61.89
2023-04-20T01:24:45.019Z,61.39
2023-04-20T01:25:44.793Z,64.01
2023-04-20T01:26:44.808Z,56.14
2023-04-20T01:27:44.823Z,56.09
2023-04-20T01:28:44.775Z,57.28
2023-04-20T01:29:44.762Z,61.65
2023-04-20T01:30:44.818Z,68.19
2023-04-20T01:31:44.849Z,60.60
2023-04-20T01:32:44.884Z,63.17
2023-04-20T01:33:44.810Z,57.38
2023-04-20T01:34:44.822Z,61.36
2023-04-20T01:35:44.812Z,61.25
2023-04-20T01:36:44.800Z,66.27
2023-04-20T01:37:44.707Z,56.30
2023-04-20T01:38:44.737Z,56.19
2023-04-20T01:39:44.850Z,60.15
2023-04-20T01:40:44.785Z,61.52
2023-04-20T01:41:44.668Z,56.72
2023-04-20T01:42:44.682Z,59.99
2023-04-20T01:43:44.703Z,56.93
2023-04-20T01:44:44.655Z,62.13
2023-04-20T01:45:44.669Z,56.13
2023-04-20T01:46:44.703Z,56.91
2023-04-20T01:47:44.742Z,68.94
2023-04-20T01:48:44.659Z,64.05
2023-04-20T01:49:44.658Z,56.59
2023-04-20T01:50:44.652Z,57.16
2023-04-20T01:51:44.642Z,67.64
2023-04-20T01:52:44.629Z,62.02
2023-04-20T01:53:44.617Z,66.13
2023-04-20T01:54:44.614Z,60.70
2023-04-20T01:55:44.651Z,61.74
2023-04-20T01:56:44.620Z,57.93
2023-04-20T01:57:44.582Z,68.09
2023-04-20T01:58:44.613Z,56.23
2023-04-20T01:59:44.573Z,56.05
2023-04-20T02:00:44.644Z,56.33
2023-04-20T02:01:44.650Z,61.31
2023-04-20T02:02:44.772Z,60.02
2023-04-20T02:03:44.813Z,62.89
2023-04-20T02:04:44.592Z,57.46
2023-04-20T02:05:44.549Z,56.45
2023-04-20T02:06:44.555Z,56.75
2023-04-20T02:07:44.570Z,56.43
2023-04-20T02:08:44.510Z,60.65
2023-04-20T02:09:44.508Z,56.62
2023-04-20T02:10:44.527Z,56.93
2023-04-20T02:11:44.552Z,57.76
2023-04-20T02:12:44.485Z,61.40
2023-04-20T02:13:44.550Z,56.94
2023-04-20T02:14:44.473Z,57.54
2023-04-20T02:15:44.500Z,64.64
2023-04-20T02:16:44.545Z,56.26
2023-04-20T02:17:44.462Z,56.02
2023-04-20T02:18:44.469Z,59.25
2023-04-20T02:19:44.467Z,56.27
2023-04-20T02:20:44.423Z,56.18
2023-04-20T02:21:44.462Z,63.44
2023-04-20T02:22:44.441Z,57.70
2023-04-20T02:23:44.707Z,60.14
2023-04-20T02:24:44.434Z,56.03
2023-04-20T02:25:44.427Z,59.19
2023-04-20T02:26:44.418Z,58.27
2023-04-20T02:27:44.408Z,59.59
2023-04-20T02:28:44.422Z,58.96
2023-04-20T02:29:45.006Z,56.20
2023-04-20T02:30:44.403Z,62.68
2023-04-20T02:31:44.436Z,57.34
2023-04-20T02:32:44.452Z,65.62
2023-04-20T02:33:44.367Z,67.20
2023-04-20T02:34:44.369Z,58.41
2023-04-20T02:35:44.384Z,55.94
2023-04-20T02:36:44.373Z,63.15
2023-04-20T02:37:44.339Z,64.05
2023-04-20T03:02:23.301Z,63.23
2023-04-20T03:03:23.184Z,61.68
2023-04-20T03:04:23.086Z,69.83
2023-04-20T03:05:23.016Z,65.20
2023-04-20T03:06:22.972Z,65.28
2023-04-20T03:07:22.975Z,58.89
2023-04-20T03:08:22.911Z,63.39
2023-04-20T03:09:22.930Z,66.20
2023-04-20T03:10:22.893Z,67.67
2023-04-20T03:11:22.944Z,69.48
2023-04-20T03:12:22.912Z,70.23
2023-04-20T03:13:22.891Z,61.87
2023-04-20T03:14:22.866Z,69.67
2023-04-20T03:15:22.872Z,69.26
2023-04-20T03:16:22.889Z,69.21
2023-04-20T03:17:23.064Z,68.15
2023-04-20T03:18:22.872Z,67.00
2023-04-20T03:19:22.847Z,65.54
2023-04-20T03:20:22.863Z,69.66
2023-04-20T03:21:23.702Z,68.89
2023-04-20T03:22:22.851Z,66.75
2023-04-20T03:23:22.832Z,70.85
2023-04-20T03:24:22.805Z,64.91
2023-04-20T03:25:22.790Z,61.35
2023-04-20T03:26:22.800Z,68.49
2023-04-20T03:27:22.800Z,69.26
2023-04-20T03:28:22.837Z,65.18
2023-04-20T03:29:22.816Z,67.54
2023-04-20T03:30:22.760Z,69.09
2023-04-20T03:31:22.770Z,68.54
2023-04-20T03:32:22.824Z,69.78
2023-04-20T03:33:22.758Z,66.40
2023-04-20T03:34:22.779Z,74.46
2023-04-20T03:35:22.768Z,73.74
2023-04-20T03:36:22.761Z,72.03
2023-04-20T03:37:22.750Z,67.85
2023-04-20T03:38:22.792Z,69.47
2023-04-20T03:39:22.701Z,77.19
2023-04-20T03:40:22.734Z,67.57
2023-04-20T03:41:22.700Z,71.01
2023-04-20T03:42:22.708Z,69.12
2023-04-20T03:43:22.729Z,69.94
2023-04-20T03:44:22.704Z,74.22
2023-04-20T03:45:22.689Z,70.73
2023-04-20T03:46:23.485Z,68.89
2023-04-20T03:47:23.716Z,67.94
2023-04-20T03:48:22.706Z,69.94
2023-04-20T03:49:22.694Z,68.05
2023-04-20T03:50:22.674Z,74.28
2023-04-20T03:51:22.677Z,68.45
2023-04-20T03:52:22.684Z,72.23
2023-04-20T03:53:22.637Z,69.20
2023-04-20T03:54:22.635Z,69.11
2023-04-20T03:55:22.653Z,72.54
2023-04-20T03:56:22.610Z,72.88
2023-04-20T03:57:22.675Z,71.34
2023-04-20T03:58:22.637Z,73.36
2023-04-20T03:59:22.606Z,72.99
2023-04-20T04:00:22.702Z,71.03
2023-04-20T04:01:22.614Z,73.67
2023-04-20T04:02:22.921Z,70.41
2023-04-20T04:03:22.840Z,74.99
2023-04-20T04:04:22.885Z,75.55
2023-04-20T04:05:22.797Z,72.87
2023-04-20T04:06:22.551Z,68.98
2023-04-20T04:07:22.589Z,68.61
2023-04-20T04:08:22.560Z,70.91
2023-04-20T04:09:22.617Z,73.20
2023-04-20T04:10:22.521Z,61.29
2023-04-20T04:11:22.586Z,76.34
2023-04-20T04:12:22.533Z,66.52
2023-04-20T04:13:22.523Z,73.95
2023-04-20T04:14:22.500Z,72.83
2023-04-20T04:15:22.570Z,72.52
2023-04-20T04:16:22.508Z,69.50
2023-04-20T04:17:22.536Z,76.27
2023-04-20T04:18:22.515Z,74.85
2023-04-20T04:19:22.470Z,69.35
2023-04-20T04:20:22.460Z,71.10
2023-04-20T04:21:22.467Z,72.09
2023-04-20T04:22:22.496Z,75.82
2023-04-20T04:23:22.489Z,71.75
2023-04-20T04:24:22.462Z,69.63
2023-04-20T04:25:22.420Z,71.33
2023-04-20T04:26:23.048Z,72.23
2023-04-20T04:27:22.428Z,74.09
2023-04-20T04:28:22.384Z,71.10
2023-04-20T04:29:22.450Z,73.97
2023-04-20T04:30:22.435Z,77.51
2023-04-20T04:31:22.425Z,75.10
2023-04-20T04:32:22.392Z,73.80
2023-04-20T04:33:22.374Z,70.91
2023-04-20T04:34:22.347Z,75.65
2023-04-20T04:35:22.660Z,71.67
2023-04-20T04:36:22.336Z,76.13
2023-04-20T04:37:22.371Z,75.71
2023-04-20T04:38:22.390Z,71.41
2023-04-20T04:39:22.377Z,72.83
2023-04-20T04:40:22.374Z,73.03
2023-04-20T04:41:22.354Z,74.20
2023-04-20T04:42:22.336Z,74.12
2023-04-20T04:43:22.305Z,72.44
2023-04-20T04:44:22.311Z,75.16
2023-04-20T04:45:22.328Z,73.60
2023-04-20T04:46:22.321Z,77.65
2023-04-20T04:47:22.482Z,70.80
2023-04-20T04:48:22.320Z,74.49
2023-04-20T04:49:22.267Z,75.05
2023-04-20T04:50:22.283Z,76.13
2023-04-20T04:51:22.292Z,74.89
2023-04-20T04:52:22.302Z,73.58
2023-04-20T04:53:22.241Z,74.52
2023-04-20T04:54:22.256Z,74.00
2023-04-20T04:55:22.257Z,70.82
2023-04-20T04:56:22.219Z,71.02
2023-04-20T04:57:22.244Z,73.64
2023-04-20T04:58:22.213Z,74.78
2023-04-20T04:59:22.245Z,75.44
2023-04-20T05:00:22.248Z,74.08
2023-04-20T05:01:22.302Z,69.98
2023-04-20T05:02:22.424Z,72.28
2023-04-20T05:03:22.374Z,66.98
2023-04-20T05:04:22.270Z,67.96
2023-04-20T05:05:22.217Z,72.58
2023-04-20T05:06:22.191Z,71.19
2023-04-20T05:07:22.194Z,73.57
2023-04-20T05:08:22.161Z,72.66
2023-04-20T05:09:22.165Z,71.66
2023-04-20T05:10:22.198Z,74.20
2023-04-20T05:11:22.135Z,72.59
2023-04-20T05:12:22.215Z,72.28
2023-04-20T05:13:22.177Z,74.49
2023-04-20T05:14:22.154Z,72.45
2023-04-20T05:15:22.145Z,72.01
2023-04-20T05:16:22.160Z,70.81
2023-04-20T05:17:25.238Z,72.55
2023-04-20T05:18:22.130Z,72.40
2023-04-20T05:19:22.107Z,70.39
2023-04-20T05:20:22.116Z,70.18
2023-04-20T05:21:22.152Z,74.46
2023-04-20T05:22:22.076Z,77.20
2023-04-20T05:23:22.072Z,67.13
2023-04-20T05:24:22.070Z,68.32
2023-04-20T05:25:22.121Z,74.20
2023-04-20T05:26:22.060Z,74.64
2023-04-20T05:27:22.053Z,73.97
2023-04-20T05:28:22.054Z,71.63
2023-04-20T05:29:22.089Z,75.31
2023-04-20T05:30:22.307Z,68.85
2023-04-20T05:31:22.054Z,75.06
2023-04-20T05:32:22.097Z,72.93
2023-04-20T05:33:22.066Z,75.00
2023-04-20T05:34:22.027Z,74.01
2023-04-20T05:35:22.011Z,72.98
2023-04-20T05:36:22.024Z,69.40
2023-04-20T05:37:21.973Z,73.90
2023-04-20T05:38:21.950Z,75.71
2023-04-20T05:39:21.971Z,71.37
2023-04-20T05:40:21.965Z,69.56
2023-04-20T05:41:21.994Z,71.67
2023-04-20T05:42:21.978Z,71.75
2023-04-20T05:43:21.966Z,71.09
2023-04-20T05:44:21.925Z,73.23
2023-04-20T05:45:21.969Z,74.07
2023-04-20T05:46:21.969Z,75.23
2023-04-20T05:47:21.936Z,73.76
2023-04-20T05:48:21.911Z,75.26
2023-04-20T05:49:21.914Z,74.39
2023-04-20T05:50:21.937Z,71.76
2023-04-20T05:51:21.931Z,71.44
2023-04-20T05:52:21.905Z,72.06
2023-04-20T05:53:21.885Z,74.85
2023-04-20T05:54:21.878Z,74.94
2023-04-20T05:55:22.834Z,73.76
2023-04-20T05:56:22.883Z,71.74
2023-04-20T05:57:21.892Z,74.09
2023-04-20T05:58:21.898Z,72.90
2023-04-20T05:59:22.619Z,74.22
2023-04-20T06:00:24.445Z,76.44
2023-04-20T06:01:21.865Z,74.39
2023-04-20T06:02:22.005Z,74.18
2023-04-20T06:03:22.090Z,71.41
2023-04-20T06:04:22.059Z,71.15
2023-04-20T06:05:21.949Z,73.98
2023-04-20T06:06:21.807Z,71.86
2023-04-20T06:07:21.833Z,71.15
2023-04-20T06:08:21.828Z,73.81
2023-04-20T06:09:21.800Z,75.13
2023-04-20T06:10:21.802Z,74.94
2023-04-20T06:11:21.840Z,73.49
2023-04-20T06:12:21.775Z,76.61
2023-04-20T06:13:21.786Z,72.62
2023-04-20T06:14:22.595Z,74.21
2023-04-20T06:15:21.790Z,76.48
2023-04-20T06:16:21.801Z,73.28
2023-04-20T06:17:21.758Z,72.62
2023-04-20T06:18:21.721Z,78.35
2023-04-20T06:19:21.810Z,75.05
2023-04-20T06:20:21.733Z,75.64
2023-04-20T06:21:21.732Z,70.84
2023-04-20T06:22:21.720Z,75.47
2023-04-20T06:23:21.723Z,75.61
2023-04-20T06:24:21.824Z,73.46
2023-04-20T06:25:21.719Z,73.12
2023-04-20T06:26:21.744Z,73.91
2023-04-20T06:27:21.701Z,64.35
2023-04-20T06:28:21.692Z,69.74
2023-04-20T06:29:21.681Z,73.53
2023-04-20T06:30:21.684Z,66.63
2023-04-20T06:31:21.698Z,74.64
2023-04-20T06:32:21.719Z,71.06
2023-04-20T06:33:21.647Z,69.02
2023-04-20T06:34:21.639Z,73.91
2023-04-20T06:35:21.741Z,69.67
2023-04-20T06:36:21.623Z,72.75
2023-04-20T06:37:21.630Z,73.14
2023-04-20T06:38:21.649Z,74.13
2023-04-20T06:39:21.660Z,69.78
2023-04-20T06:40:21.618Z,75.24
2023-04-20T06:41:21.599Z,75.74
2023-04-20T06:42:21.634Z,72.28
2023-04-20T06:43:21.594Z,71.23
2023-04-20T06:44:21.560Z,73.57
2023-04-20T06:45:21.576Z,72.00
2023-04-20T06:46:21.611Z,71.77
2023-04-20T06:47:21.630Z,73.09
2023-04-20T06:48:31.367Z,73.12
2023-04-20T06:49:23.558Z,70.34
2023-04-20T06:50:21.562Z,73.96
2023-04-20T06:51:21.559Z,74.68
2023-04-20T06:52:21.597Z,70.51
2023-04-20T06:53:21.597Z,70.84
2023-04-20T06:54:21.528Z,73.65
2023-04-20T06:55:21.514Z,74.72
2023-04-20T06:56:21.572Z,74.72
2023-04-20T06:57:21.566Z,69.40
2023-04-20T06:58:21.550Z,73.85
2023-04-20T06:59:21.488Z,70.88
2023-04-20T07:00:21.504Z,72.43
2023-04-20T07:01:21.537Z,74.51
2023-04-20T07:02:21.602Z,71.47
2023-04-20T07:03:21.643Z,70.22
2023-04-20T07:04:21.575Z,70.93
2023-04-20T07:05:21.467Z,73.34
2023-04-20T07:06:21.503Z,72.40
2023-04-20T07:07:21.459Z,73.78
2023-04-20T07:08:21.455Z,73.38
2023-04-20T07:09:21.475Z,74.38
2023-04-20T07:10:21.448Z,73.47
2023-04-20T07:11:21.506Z,72.72
2023-04-20T07:12:21.437Z,70.23
2023-04-20T07:13:21.412Z,75.21
2023-04-20T07:14:21.400Z,70.16
2023-04-20T07:15:22.159Z,75.08
2023-04-20T07:16:21.395Z,68.93
2023-04-20T07:17:21.398Z,70.28
2023-04-20T07:18:21.367Z,71.31
2023-04-20T07:19:21.369Z,74.59
2023-04-20T07:20:21.400Z,69.50
2023-04-20T07:21:21.409Z,69.89
2023-04-20T07:22:21.355Z,72.47
2023-04-20T07:23:22.108Z,71.66
2023-04-20T07:24:21.418Z,71.11
2023-04-20T07:25:21.437Z,71.93
2023-04-20T07:26:21.343Z,72.34
2023-04-20T07:27:58.384Z,73.13
2023-04-20T07:28:21.386Z,72.40
2023-04-20T07:29:57.107Z,72.88
2023-04-20T07:30:56.364Z,71.26
2023-04-20T07:31:53.839Z,73.68
2023-04-20T07:32:55.180Z,63.92
2023-04-20T07:33:53.763Z,71.14
2023-04-20T07:37:59.748Z,71.80
2023-04-20T07:38:23.745Z,66.93
2023-04-20T07:39:23.720Z,74.95
2023-04-20T07:40:23.695Z,76.14
2023-04-20T07:41:59.747Z,69.67
2023-04-20T07:42:23.863Z,66.64
2023-04-20T07:43:23.830Z,68.64
2023-04-20T07:44:23.686Z,70.63
2023-04-20T07:45:23.793Z,72.34
2023-04-20T07:46:23.934Z,69.35
2023-04-20T07:47:23.869Z,73.83
2023-04-20T07:48:24.262Z,72.59
2023-04-20T07:49:24.959Z,72.97
2023-04-20T07:50:23.649Z,71.80
2023-04-20T07:51:23.583Z,70.73
2023-04-20T07:52:23.647Z,69.80
2023-04-20T07:53:23.753Z,74.91
2023-04-20T07:54:23.545Z,71.23
2023-04-20T07:55:23.575Z,71.51
2023-04-20T07:56:23.711Z,71.09
2023-04-20T07:57:23.698Z,73.49
2023-04-20T07:58:23.584Z,68.77
2023-04-20T07:59:23.551Z,70.48
2023-04-20T08:00:23.638Z,71.15
2023-04-20T08:01:23.555Z,71.89
2023-04-20T08:02:23.741Z,71.99
2023-04-20T08:03:23.623Z,72.04
2023-04-20T08:04:23.925Z,68.12
2023-04-20T08:05:23.794Z,71.92
2023-04-20T08:06:23.728Z,72.87
2023-04-20T08:07:23.529Z,72.01
2023-04-20T08:08:23.452Z,73.57
2023-04-20T08:09:23.517Z,68.75
2023-04-20T08:10:23.570Z,70.91
2023-04-20T08:11:23.484Z,69.21
2023-04-20T08:12:23.521Z,73.20
2023-04-20T08:13:23.517Z,68.94
2023-04-20T08:14:23.471Z,68.09
2023-04-20T08:15:23.427Z,71.08
2023-04-20T08:16:24.085Z,70.58
2023-04-20T08:17:23.457Z,69.50
2023-04-20T08:18:24.269Z,72.44
2023-04-20T08:19:23.492Z,72.64
2023-04-20T08:20:23.373Z,72.85
2023-04-20T08:21:25.414Z,71.75
2023-04-20T08:22:24.365Z,73.08
2023-04-20T08:23:23.433Z,73.38
2023-04-20T08:24:23.362Z,71.40
2023-04-20T08:25:25.250Z,72.07
2023-04-20T08:26:23.389Z,73.16
2023-04-20T08:27:23.457Z,71.74
2023-04-20T08:28:33.318Z,73.24
2023-04-20T08:29:25.413Z,68.98
2023-04-20T08:30:23.403Z,72.54
2023-04-20T08:31:23.773Z,70.94
2023-04-20T08:32:23.336Z,71.07
2023-04-20T08:33:23.292Z,72.13
2023-04-20T08:34:23.301Z,73.01
2023-04-20T08:35:23.415Z,72.76
2023-04-20T08:36:23.347Z,72.28
2023-04-20T08:37:23.323Z,72.81
2023-04-20T08:38:32.931Z,71.35
2023-04-20T08:39:25.311Z,71.60
2023-04-20T08:40:23.299Z,68.24
2023-04-20T08:41:23.349Z,71.28
2023-04-20T08:42:23.276Z,71.38
2023-04-20T08:43:23.275Z,70.14
2023-04-20T08:44:23.480Z,71.39
2023-04-20T08:45:23.468Z,68.38
2023-04-20T08:46:23.330Z,71.36
2023-04-20T08:47:23.246Z,73.01
2023-04-20T08:48:23.217Z,68.36
2023-04-20T08:49:23.207Z,70.23
2023-04-20T08:50:23.500Z,65.17
2023-04-20T08:51:23.244Z,72.40
2023-04-20T08:52:23.200Z,71.63
2023-04-20T08:53:23.162Z,72.05
2023-04-20T08:54:24.739Z,71.98
2023-04-20T08:55:24.257Z,73.21
2023-04-20T08:56:23.951Z,70.38
2023-04-20T08:57:23.992Z,70.98
2023-04-20T08:58:23.450Z,69.85
2023-04-20T08:59:23.415Z,73.88
2023-04-20T09:00:23.498Z,72.25
2023-04-20T09:01:34.312Z,69.69
2023-04-20T09:02:25.136Z,70.26
2023-04-20T09:03:58.488Z,73.05
2023-04-20T09:04:23.519Z,70.67
2023-04-20T09:05:23.322Z,66.95
2023-04-20T09:06:23.467Z,73.45
2023-04-20T09:07:24.134Z,68.88
2023-04-20T09:08:23.112Z,71.49
2023-04-20T09:09:23.306Z,69.26
2023-04-20T09:10:23.874Z,65.98
2023-04-20T09:11:23.185Z,73.88
2023-04-20T09:12:23.114Z,72.77
2023-04-20T09:13:23.059Z,72.18
2023-04-20T09:14:23.093Z,65.26
2023-04-20T09:15:23.208Z,70.95
2023-04-20T09:16:23.819Z,70.52
2023-04-20T09:17:23.117Z,71.38
2023-04-20T09:18:23.076Z,70.46
2023-04-20T09:19:23.046Z,72.29
2023-04-20T09:20:23.053Z,71.13
2023-04-20T09:21:23.018Z,71.83
2023-04-20T09:22:23.048Z,71.84
2023-04-20T09:23:23.043Z,74.43
2023-04-20T09:24:23.018Z,65.46
2023-04-20T09:25:22.976Z,72.04
2023-04-20T09:26:23.044Z,66.36
2023-04-20T09:27:22.958Z,70.46
2023-04-20T09:28:22.996Z,72.27
2023-04-20T09:29:22.967Z,73.54
2023-04-20T09:30:22.986Z,73.73
2023-04-20T09:31:23.001Z,72.91
2023-04-20T09:32:23.103Z,74.61
2023-04-20T09:33:23.558Z,70.08
2023-04-20T09:34:22.987Z,70.40
2023-04-20T09:35:22.924Z,70.23
2023-04-20T09:36:22.976Z,70.08
2023-04-20T09:37:22.935Z,74.25
2023-04-20T09:38:22.922Z,71.56
2023-04-20T09:39:22.925Z,70.44
2023-04-20T09:40:22.940Z,70.10
2023-04-20T09:41:22.907Z,73.23
2023-04-20T09:42:22.923Z,64.49
2023-04-20T09:43:22.919Z,71.57
2023-04-20T09:44:22.903Z,73.19
2023-04-20T09:45:22.915Z,74.36
2023-04-20T09:46:22.993Z,74.08
2023-04-20T09:47:22.940Z,74.67
2023-04-20T09:48:22.853Z,67.28
2023-04-20T09:49:22.926Z,72.46
2023-04-20T09:50:29.183Z,73.80
2023-04-20T09:51:25.020Z,73.31
2023-04-20T09:52:22.872Z,73.36
2023-04-20T09:53:22.909Z,74.82
2023-04-20T09:54:22.858Z,71.57
2023-04-20T09:55:22.851Z,73.75
2023-04-20T09:56:22.821Z,74.60
2023-04-20T09:57:22.785Z,73.91
2023-04-20T09:58:22.998Z,74.69
2023-04-20T09:59:22.811Z,72.85
2023-04-20T10:00:22.788Z,75.01
2023-04-20T10:01:22.834Z,69.78
2023-04-20T10:02:22.932Z,72.55
2023-04-20T10:03:22.879Z,71.39
2023-04-20T10:04:24.230Z,71.69
2023-04-20T10:05:22.795Z,73.64
2023-04-20T10:06:22.817Z,67.99
2023-04-20T10:07:22.823Z,72.19
2023-04-20T10:08:22.746Z,68.79
2023-04-20T10:09:22.773Z,74.20
2023-04-20T10:10:22.727Z,74.84
2023-04-20T10:11:22.773Z,69.12
2023-04-20T10:12:22.840Z,71.60
2023-04-20T10:13:22.854Z,73.44
2023-04-20T10:14:22.719Z,71.78
2023-04-20T10:15:22.686Z,69.83
2023-04-20T10:16:22.751Z,72.06
2023-04-20T10:17:22.845Z,74.41
2023-04-20T10:18:23.821Z,71.66
2023-04-20T10:19:22.985Z,74.19
2023-04-20T10:20:22.664Z,70.57
2023-04-20T10:21:22.812Z,73.01
2023-04-20T10:22:22.644Z,70.94
2023-04-20T10:23:22.686Z,70.57
2023-04-20T10:24:22.894Z,67.57
2023-04-20T10:25:22.632Z,65.61
2023-04-20T10:26:22.664Z,74.59
2023-04-20T10:27:22.610Z,71.75
2023-04-20T10:28:22.688Z,72.89
2023-04-20T10:29:22.671Z,67.17
2023-04-20T10:30:22.600Z,74.31
2023-04-20T10:31:22.682Z,67.79
2023-04-20T10:32:22.755Z,72.83
2023-04-20T10:33:22.616Z,72.89
2023-04-20T10:34:22.607Z,72.71
2023-04-20T10:35:22.585Z,75.96
2023-04-20T10:36:22.570Z,70.93
2023-04-20T10:37:22.714Z,71.24
2023-04-20T10:38:22.559Z,71.28
2023-04-20T10:39:22.869Z,72.07
2023-04-20T10:40:22.556Z,74.01
2023-04-20T10:41:22.555Z,70.83
2023-04-20T10:42:22.534Z,69.71
2023-04-20T10:43:22.676Z,70.87
2023-04-20T10:44:22.573Z,73.11
2023-04-20T10:45:22.504Z,72.30
2023-04-20T10:46:22.520Z,71.27
2023-04-20T10:47:22.547Z,73.17
2023-04-20T10:48:22.503Z,70.03
2023-04-20T10:49:22.536Z,69.88
2023-04-20T10:50:22.518Z,71.52
2023-04-20T10:51:22.500Z,72.89
2023-04-20T10:52:22.501Z,70.67
2023-04-20T10:53:22.525Z,70.99
2023-04-20T10:54:22.470Z,71.57
2023-04-20T10:55:22.439Z,72.37
2023-04-20T10:56:22.443Z,73.68
2023-04-20T10:57:22.441Z,71.77
2023-04-20T10:58:22.446Z,71.79
2023-04-20T10:59:22.426Z,74.50
2023-04-20T11:00:22.447Z,72.00
2023-04-20T11:01:22.445Z,69.58
2023-04-20T11:02:22.638Z,74.28
2023-04-20T11:03:24.312Z,70.74
2023-04-20T11:04:22.473Z,74.76
2023-04-20T11:05:22.675Z,73.39
2023-04-20T11:06:22.378Z,71.10
2023-04-20T11:07:22.376Z,76.47
2023-04-20T11:08:22.410Z,69.87
2023-04-20T11:09:22.463Z,68.81
2023-04-20T11:10:22.378Z,71.89
2023-04-20T11:11:23.415Z,71.37
2023-04-20T11:12:22.346Z,68.70
2023-04-20T11:13:22.377Z,71.03
2023-04-20T11:14:22.375Z,72.20
2023-04-20T11:15:22.339Z,73.63
2023-04-20T11:16:22.480Z,70.10
2023-04-20T11:17:22.364Z,73.22
2023-04-20T11:18:22.380Z,73.66
2023-04-20T11:19:22.295Z,69.74
2023-04-20T11:20:22.287Z,71.81
2023-04-20T11:21:22.305Z,72.18
2023-04-20T11:22:22.280Z,67.38
2023-04-20T11:23:22.303Z,68.00
2023-04-20T11:24:22.307Z,72.87
2023-04-20T11:25:22.365Z,72.70
2023-04-20T11:26:22.259Z,71.97
2023-04-20T11:27:22.267Z,70.05
2023-04-20T11:28:27.069Z,75.23
2023-04-20T11:29:22.910Z,70.89
2023-04-20T11:30:22.235Z,71.59
2023-04-20T11:31:22.274Z,68.95
2023-04-20T11:32:22.426Z,73.24
2023-04-20T11:33:22.370Z,72.58
2023-04-20T11:34:22.259Z,71.67
2023-04-20T11:35:22.187Z,68.36
2023-04-20T11:36:22.199Z,72.71
2023-04-20T11:37:22.245Z,70.72
2023-04-20T11:38:22.251Z,71.12
2023-04-20T11:39:22.223Z,72.99
2023-04-20T11:40:22.180Z,74.04
2023-04-20T11:41:22.262Z,73.47
2023-04-20T11:42:22.305Z,72.67
2023-04-20T11:43:22.178Z,70.94
2023-04-20T11:44:22.183Z,72.82
2023-04-20T11:45:23.260Z,73.52
2023-04-20T11:46:22.207Z,72.46
2023-04-20T11:47:22.169Z,73.52
2023-04-20T11:48:22.130Z,71.89
2023-04-20T11:49:22.178Z,71.91
2023-04-20T11:50:22.117Z,70.37
2023-04-20T11:51:22.094Z,73.22
2023-04-20T11:52:22.111Z,74.29
2023-04-20T11:53:22.093Z,73.65
2023-04-20T11:54:22.141Z,71.26
2023-04-20T11:55:22.122Z,71.69
2023-04-20T11:56:22.073Z,72.63
2023-04-20T11:57:22.085Z,72.97
2023-04-20T11:58:22.090Z,71.91
2023-04-20T11:59:22.075Z,70.26
2023-04-20T12:00:22.048Z,68.73
2023-04-20T12:01:22.044Z,67.99
2023-04-20T12:02:22.153Z,69.29
2023-04-20T12:03:22.378Z,70.42
2023-04-20T12:04:22.322Z,71.43
2023-04-20T12:05:22.111Z,70.98
2023-04-20T12:06:22.125Z,73.21
2023-04-20T12:07:22.820Z,69.24
2023-04-20T12:08:21.995Z,71.66
2023-04-20T12:09:22.042Z,70.47
2023-04-20T12:10:22.020Z,70.78
2023-04-20T12:11:21.998Z,73.88
2023-04-20T12:12:21.986Z,70.38
2023-04-20T12:13:21.967Z,73.41
2023-04-20T12:14:21.984Z,72.45
2023-04-20T12:15:21.966Z,68.44
2023-04-20T12:16:22.019Z,71.02
2023-04-20T12:17:21.996Z,72.06
2023-04-20T12:18:22.001Z,68.35
2023-04-20T12:19:21.949Z,71.84
2023-04-20T12:20:21.926Z,72.45
2023-04-20T12:21:21.971Z,71.15
2023-04-20T12:22:22.022Z,70.82
2023-04-20T12:23:21.938Z,72.64
2023-04-20T12:24:21.904Z,70.13
2023-04-20T12:25:21.934Z,71.73
2023-04-20T12:26:27.016Z,74.31
2023-04-20T12:27:49.992Z,71.70
2023-04-20T12:31:54.216Z,72.48
2023-04-20T12:32:21.770Z,73.18
2023-04-20T12:33:55.148Z,75.27
2023-04-20T12:38:48.567Z,71.28
2023-04-20T12:39:48.532Z,70.17
2023-04-20T12:40:48.538Z,69.54
2023-04-20T12:42:21.536Z,74.45
2023-04-20T12:42:48.491Z,73.16
2023-04-20T12:43:48.545Z,74.19
2023-04-20T12:44:48.504Z,73.10
2023-04-20T12:45:48.549Z,74.04
2023-04-20T12:46:48.564Z,73.66
2023-04-20T12:47:48.446Z,71.83
2023-04-20T12:48:48.478Z,72.16
2023-04-20T12:49:48.455Z,70.61
2023-04-20T12:50:48.445Z,71.99
2023-04-20T12:51:48.511Z,74.15
2023-04-20T12:52:48.420Z,73.98
2023-04-20T12:53:48.414Z,73.61
2023-04-20T12:54:48.486Z,71.40
2023-04-20T12:55:53.119Z,71.79
2023-04-20T12:56:49.431Z,71.20
2023-04-20T12:57:48.449Z,73.35
2023-04-20T12:58:48.389Z,68.36
2023-04-20T12:59:48.408Z,72.59
2023-04-20T13:00:48.418Z,72.56
2023-04-20T13:01:48.422Z,75.48
2023-04-20T13:02:48.466Z,72.49
2023-04-20T13:03:48.525Z,69.51
2023-04-20T13:04:48.367Z,69.74
2023-04-20T13:05:48.363Z,74.86
2023-04-20T13:06:48.372Z,71.66
2023-04-20T13:07:48.342Z,71.00
2023-04-20T13:08:48.328Z,73.00
2023-04-20T13:09:48.320Z,72.26
2023-04-20T13:10:48.294Z,70.37
2023-04-20T13:11:48.310Z,74.76
2023-04-20T13:12:48.279Z,74.33
2023-04-20T13:13:48.283Z,70.48
2023-04-20T13:14:48.278Z,73.31
2023-04-20T13:15:48.303Z,72.74
2023-04-20T13:16:48.407Z,72.70
2023-04-20T13:17:48.289Z,74.77
2023-04-20T13:18:48.290Z,71.01
2023-04-20T13:19:48.275Z,70.04
2023-04-20T13:20:48.261Z,71.67
2023-04-20T13:21:48.251Z,71.63
2023-04-20T13:22:57.517Z,71.33
2023-04-20T13:23:50.233Z,73.64
2023-04-20T13:24:48.256Z,73.17
2023-04-20T13:25:48.240Z,72.19
2023-04-20T13:26:48.254Z,71.42